Saratoga-Weather Station Historical Data
 
Daily Summary for January 23, 2019 Units:  English    Metric   Both
Daily Weekly Monthly Yearly Custom
  Current: High: Low: Average:
Temperature: 39.4 °F 40.8 °F 25.5 °F 31.5 °F
Dew Point: 37.5 °F 38.8 °F 11.8 °F 22.9 °F
Humidity: 93% 94% 55% 71%
Wind Speed: 0.0mph 7.0mph 0.0mph 0.3mph
Wind Gust: 2.0mph 12.0mph - -
WindCalm - - West
Pressure: 29.89 in 30.50 in 29.89 in -
Precipitation: 0.36 in      
Historical Graphs
 
 
Tabular Data for January 23, 2019
Time Temperature Dew Point Pressure Wind Wind Speed Wind Gust Humidity Rainfall Rate (Hourly) solar
00:03 25.7 °F 11.8 °F 30.50 in Calm   4.0 mph 55% 0.00 in VWS V15.00 W/m2
00:09 25.8 °F 11.9 °F 30.50 in NW 2.0 mph 4.0 mph 55% 0.00 in VWS V15.00 W/m2
00:13 25.8 °F 11.9 °F 30.50 in Calm   4.0 mph 55% 0.00 in VWS V15.00 W/m2
00:19 25.8 °F 11.9 °F 30.49 in Calm   4.0 mph 55% 0.00 in VWS V15.00 W/m2
00:23 25.8 °F 13.8 °F 30.49 in Calm   4.0 mph 60% 0.00 in VWS V15.00 W/m2
00:29 25.6 °F 13.3 °F 30.47 in Calm   4.0 mph 59% 0.00 in VWS V15.00 W/m2
00:33 25.5 °F 13.2 °F 30.47 in Calm     59% 0.00 in VWS V15.00 W/m2
00:39 25.5 °F 12.0 °F 30.47 in Calm   5.0 mph 56% 0.00 in VWS V15.00 W/m2
00:43 25.6 °F 12.1 °F 30.47 in NW 1.0 mph 5.0 mph 56% 0.00 in VWS V15.00 W/m2
00:49 25.7 °F 12.6 °F 30.47 in Calm   5.0 mph 57% 0.00 in VWS V15.00 W/m2
00:53 25.8 °F 12.7 °F 30.47 in Calm   5.0 mph 57% 0.00 in VWS V15.00 W/m2
00:59 25.8 °F 12.3 °F 30.47 in Calm   5.0 mph 56% 0.00 in VWS V15.00 W/m2
01:03 25.8 °F 12.7 °F 30.46 in Calm     57% 0.00 in VWS V15.00 W/m2
01:09 25.8 °F 13.1 °F 30.46 in Calm   1.0 mph 58% 0.00 in VWS V15.00 W/m2
01:13 25.8 °F 13.1 °F 30.46 in Calm   1.0 mph 58% 0.00 in VWS V15.00 W/m2
01:19 25.6 °F 12.9 °F 30.46 in Calm   1.0 mph 58% 0.00 in VWS V15.00 W/m2
01:23 25.6 °F 12.5 °F 30.46 in Calm   7.0 mph 57% 0.00 in VWS V15.00 W/m2
01:29 25.6 °F 12.9 °F 30.46 in Calm   7.0 mph 58% 0.00 in VWS V15.00 W/m2
01:33 25.6 °F 12.9 °F 30.46 in NW 1.0 mph 3.0 mph 58% 0.00 in VWS V15.00 W/m2
01:37 25.6 °F 12.9 °F 30.46 in Calm   5.0 mph 58% 0.00 in VWS V15.00 W/m2
01:43 25.6 °F 12.9 °F 30.45 in Calm   5.0 mph 58% 0.00 in VWS V15.00 W/m2
01:47 25.6 °F 12.9 °F 30.45 in Calm   5.0 mph 58% 0.00 in VWS V15.00 W/m2
01:53 25.7 °F 12.6 °F 30.45 in Calm   5.0 mph 57% 0.00 in VWS V15.00 W/m2
01:57 25.7 °F 13.0 °F 30.44 in Calm   5.0 mph 58% 0.00 in VWS V15.00 W/m2
02:03 25.7 °F 13.4 °F 30.44 in Calm   1.0 mph 59% 0.00 in VWS V15.00 W/m2
02:07 25.7 °F 13.8 °F 30.44 in Calm   2.0 mph 60% 0.00 in VWS V15.00 W/m2
02:13 25.8 °F 13.5 °F 30.43 in Calm   3.0 mph 59% 0.00 in VWS V15.00 W/m2
02:17 25.8 °F 13.1 °F 30.43 in Calm   4.0 mph 58% 0.00 in VWS V15.00 W/m2
02:24 25.9 °F 13.2 °F 30.42 in Calm   7.0 mph 58% 0.00 in VWS V15.00 W/m2
02:27 26.0 °F 12.9 °F 30.42 in NW 1.0 mph 7.0 mph 57% 0.00 in VWS V15.00 W/m2
02:34 26.0 °F 13.3 °F 30.42 in NW 1.0 mph 4.0 mph 58% 0.00 in VWS V15.00 W/m2
02:38 26.1 °F 13.8 °F 30.42 in NW 2.0 mph 4.0 mph 59% 0.00 in VWS V15.00 W/m2
02:44 26.2 °F 13.4 °F 30.41 in NW 1.0 mph 4.0 mph 58% 0.00 in VWS V15.00 W/m2
02:48 26.3 °F 12.8 °F 30.41 in Calm   4.0 mph 56% 0.00 in VWS V15.00 W/m2
02:54 26.4 °F 14.0 °F 30.40 in NW 1.0 mph 4.0 mph 59% 0.00 in VWS V15.00 W/m2
02:58 26.4 °F 13.2 °F 30.40 in Calm   4.0 mph 57% 0.00 in VWS V15.00 W/m2
03:04 26.5 °F 13.7 °F 30.40 in Calm   2.0 mph 58% 0.00 in VWS V15.00 W/m2
03:08 26.6 °F 14.2 °F 30.39 in NW 1.0 mph 8.0 mph 59% 0.00 in VWS V15.00 W/m2
03:14 26.8 °F 14.0 °F 30.39 in Calm   8.0 mph 58% 0.00 in VWS V15.00 W/m2
03:18 26.8 °F 14.0 °F 30.39 in Calm   8.0 mph 58% 0.00 in VWS V15.00 W/m2
03:24 26.8 °F 14.0 °F 30.39 in Calm   8.0 mph 58% 0.00 in VWS V15.00 W/m2
03:28 26.8 °F 14.0 °F 30.39 in Calm   8.0 mph 58% 0.00 in VWS V15.00 W/m2
03:34 26.8 °F 14.0 °F 30.38 in Calm   1.0 mph 58% 0.00 in VWS V15.00 W/m2
03:38 26.8 °F 14.4 °F 30.39 in Calm   3.0 mph 59% 0.00 in VWS V15.00 W/m2
03:44 26.7 °F 14.7 °F 30.38 in NW 1.0 mph 3.0 mph 60% 0.00 in VWS V15.00 W/m2
03:48 26.7 °F 15.1 °F 30.37 in Calm   3.0 mph 61% 0.00 in VWS V15.00 W/m2
03:54 26.7 °F 14.7 °F 30.37 in Calm   3.0 mph 60% 0.00 in VWS V15.00 W/m2
03:58 26.8 °F 14.8 °F 30.36 in Calm   3.0 mph 60% 0.00 in VWS V15.00 W/m2
04:04 26.8 °F 15.5 °F 30.36 in Calm   5.0 mph 62% 0.00 in VWS V15.00 W/m2
04:08 26.9 °F 15.6 °F 30.36 in Calm   5.0 mph 62% 0.00 in VWS V15.00 W/m2
04:14 26.9 °F 15.6 °F 30.35 in Calm   5.0 mph 62% 0.00 in VWS V15.00 W/m2
04:18 26.9 °F 16.4 °F 30.35 in Calm   5.0 mph 64% 0.00 in VWS V15.00 W/m2
04:24 26.8 °F 15.9 °F 30.34 in Calm   5.0 mph 63% 0.00 in VWS V15.00 W/m2
04:28 26.8 °F 15.5 °F 30.34 in Calm   5.0 mph 62% 0.00 in VWS V15.00 W/m2
04:34 26.8 °F 16.3 °F 30.34 in Calm     64% 0.00 in VWS V15.00 W/m2
04:38 26.8 °F 15.9 °F 30.34 in Calm     63% 0.00 in VWS V15.00 W/m2
04:42 26.8 °F 15.9 °F 30.35 in Calm   2.0 mph 63% 0.00 in VWS V15.00 W/m2
04:48 26.8 °F 15.9 °F 30.35 in Calm   2.0 mph 63% 0.00 in VWS V15.00 W/m2
04:52 26.9 °F 15.6 °F 30.34 in Calm   3.0 mph 62% 0.00 in VWS V15.00 W/m2
04:58 27.0 °F 15.7 °F 30.34 in Calm   3.0 mph 62% 0.00 in VWS V15.00 W/m2
05:02 27.0 °F 16.5 °F 30.34 in NW 1.0 mph 3.0 mph 64% 0.00 in VWS V15.00 W/m2
05:08 27.0 °F 16.8 °F 30.34 in Calm   3.0 mph 65% 0.00 in VWS V15.00 W/m2
05:12 27.0 °F 16.8 °F 30.34 in Calm   3.0 mph 65% 0.00 in VWS V15.00 W/m2
05:18 27.2 °F 16.6 °F 30.35 in NW 1.0 mph 4.0 mph 64% 0.00 in VWS V15.00 W/m2
05:22 27.3 °F 16.8 °F 30.34 in Calm   4.0 mph 64% 0.00 in VWS V15.00 W/m2
05:28 27.4 °F 16.5 °F 30.33 in Calm   8.0 mph 63% 0.00 in VWS V15.00 W/m2
05:32 27.5 °F 17.3 °F 30.33 in Calm   2.0 mph 65% 0.00 in VWS V15.00 W/m2
05:38 27.7 °F 16.8 °F 30.33 in Calm   9.0 mph 63% 0.00 in VWS V15.00 W/m2
05:43 27.7 °F 16.8 °F 30.33 in Calm   9.0 mph 63% 0.00 in VWS V15.00 W/m2
05:49 27.7 °F 17.1 °F 30.33 in Calm   9.0 mph 64% 0.00 in VWS V15.00 W/m2
05:53 27.6 °F 16.7 °F 30.33 in Calm   9.0 mph 63% 0.00 in VWS V15.00 W/m2
05:59 27.6 °F 17.0 °F 30.32 in Calm   9.0 mph 64% 0.00 in VWS V15.00 W/m2
06:03 27.6 °F 17.0 °F 30.33 in Calm   3.0 mph 64% 0.00 in VWS V15.00 W/m2
06:09 27.6 °F 17.0 °F 30.33 in Calm   3.0 mph 64% 0.00 in VWS V15.00 W/m2
06:13 27.6 °F 17.4 °F 30.33 in Calm   3.0 mph 65% 0.00 in VWS V15.00 W/m2
06:19 27.5 °F 17.3 °F 30.33 in Calm   3.0 mph 65% 0.00 in VWS V15.00 W/m2
06:23 27.5 °F 16.9 °F 30.33 in Calm   3.0 mph 64% 0.00 in VWS V15.00 W/m2
06:29 27.6 °F 17.7 °F 30.32 in Calm   3.0 mph 66% 0.00 in VWS V15.00 W/m2
06:33 27.6 °F 17.7 °F 30.32 in Calm   2.0 mph 66% 0.00 in VWS V15.00 W/m2
06:39 27.6 °F 18.4 °F 30.31 in Calm   2.0 mph 68% 0.00 in VWS V15.00 W/m2
06:43 27.6 °F 18.4 °F 30.31 in Calm   2.0 mph 68% 0.00 in VWS V15.00 W/m2
06:49 27.7 °F 17.8 °F 30.30 in Calm   2.0 mph 66% 0.00 in VWS V15.00 W/m2
06:53 27.8 °F 17.9 °F 30.30 in Calm   2.0 mph 66% 0.00 in VWS V15.00 W/m2
06:59 27.9 °F 17.7 °F 30.30 in Calm   2.0 mph 65% 0.00 in VWS V15.00 W/m2
07:03 28.0 °F 18.8 °F 30.31 in Calm     68% 0.00 in VWS V15.00 W/m2
07:09 28.1 °F 18.2 °F 30.31 in Calm   4.0 mph 66% 0.00 in VWS V15.00 W/m2
07:13 28.2 °F 18.7 °F 30.30 in Calm   4.0 mph 67% 0.00 in VWS V15.00 W/m2
07:19 28.4 °F 19.5 °F 30.29 in Calm   4.0 mph 69% 0.00 in VWS V15.00 W/m2
07:23 28.4 °F 18.5 °F 30.29 in Calm   4.0 mph 66% 0.00 in VWS V15.00 W/m2
07:29 28.5 °F 18.2 °F 30.29 in NW 1.0 mph 4.0 mph 65% 0.00 in VWS V15.00 W/m2
07:33 28.6 °F 18.7 °F 30.28 in Calm   3.0 mph 66% 0.00 in VWS V15.00 W/m2
07:37 28.6 °F 19.1 °F 30.30 in Calm   3.0 mph 67% 0.00 in VWS V15.00 W/m2
07:43 28.7 °F 18.8 °F 30.30 in NW 1.0 mph 3.0 mph 66% 0.00 in VWS V15.00 W/m2
07:47 28.8 °F 18.9 °F 30.29 in Calm   3.0 mph 66% 0.00 in VWS V15.00 W/m2
07:53 28.9 °F 19.0 °F 30.30 in Calm   3.0 mph 66% 0.00 in VWS V15.00 W/m2
07:55 29.0 °F 19.8 °F 30.30 in Calm   3.0 mph 68% 0.00 in VWS V15.00 W/m2
10:30 34.3 °F 24.1 °F 30.24 in WSW 1.0 mph 12.0 mph 66% 0.00 in VWS V15.00 W/m2
11:00 35.3 °F 25.8 °F 30.22 in Calm   10.0 mph 68% 0.00 in VWS V15.00 W/m2
11:30 36.4 °F 26.9 °F 30.19 in Calm   9.0 mph 68% 0.00 in VWS V15.00 W/m2
12:00 37.5 °F 29.0 °F 30.17 in Calm   10.0 mph 71% 0.00 in VWS V15.00 W/m2
12:30 38.3 °F 30.4 °F 30.15 in Calm   8.0 mph 73% 0.00 in VWS V15.00 W/m2
13:00 38.4 °F 31.8 °F 30.13 in Calm   9.0 mph 77% 0.00 in VWS V15.00 W/m2
13:30 38.7 °F 32.1 °F 30.11 in Calm   4.0 mph 77% 0.00 in VWS V15.00 W/m2
14:00 38.8 °F 32.5 °F 30.10 in Calm   6.0 mph 78% 0.00 in VWS V15.00 W/m2
14:30 39.4 °F 33.8 °F 30.07 in Calm   6.0 mph 80% 0.00 in VWS V15.00 W/m2
15:00 38.8 °F 34.4 °F 30.07 in Calm   6.0 mph 84% 0.00 in VWS V15.00 W/m2
15:30 39.1 °F 34.7 °F 30.05 in Calm   6.0 mph 84% 0.00 in VWS V15.00 W/m2
16:00 39.3 °F 35.2 °F 30.03 in Calm   6.0 mph 85% 0.00 in VWS V15.00 W/m2
16:30 38.6 °F 35.4 °F 30.02 in Calm   4.0 mph 88% 0.00 in VWS V15.00 W/m2
17:00 38.2 °F 35.5 °F 30.02 in Calm   4.0 mph 90% 0.00 in VWS V15.00 W/m2
17:30 38.8 °F 36.1 °F 30.00 in Calm   4.0 mph 90% 0.00 in VWS V15.00 W/m2
18:00 39.4 °F 35.9 °F 29.99 in Calm   4.0 mph 87% 0.00 in VWS V15.00 W/m2
18:30 40.0 °F 35.9 °F 29.98 in Calm   8.0 mph 85% 0.00 in VWS V15.00 W/m2
18:48 40.3 °F 36.5 °F 29.98 in WSW 4.0 mph 6.0 mph 86% 0.00 in VWS V15.00 W/m2
18:52 40.3 °F 36.5 °F 29.98 in WNW 1.0 mph 6.0 mph 86% 0.00 in VWS V15.00 W/m2
18:59 40.3 °F 36.8 °F 29.98 in Calm   6.0 mph 87% 0.00 in VWS V15.00 W/m2
19:03 40.3 °F 36.8 °F 29.97 in Calm   4.0 mph 87% 0.01 in VWS V15.00 W/m2
19:09 40.1 °F 36.5 °F 29.97 in NE 7.0 mph 7.0 mph 87% 0.01 in VWS V15.00 W/m2
19:13 40.1 °F 36.5 °F 29.97 in Calm   7.0 mph 87% 0.01 in VWS V15.00 W/m2
19:19 40.1 °F 36.8 °F 29.97 in East 1.0 mph 7.0 mph 88% 0.01 in VWS V15.00 W/m2
19:23 40.3 °F 36.8 °F 29.97 in Calm   7.0 mph 87% 0.01 in VWS V15.00 W/m2
19:29 40.1 °F 36.5 °F 29.96 in Calm   7.0 mph 87% 0.01 in VWS V15.00 W/m2
19:33 40.0 °F 36.7 °F 29.95 in Calm   4.0 mph 88% 0.01 in VWS V15.00 W/m2
19:39 40.2 °F 36.9 °F 29.95 in Calm   6.0 mph 88% 0.01 in VWS V15.00 W/m2
19:43 40.4 °F 37.1 °F 29.94 in NW 1.0 mph 6.0 mph 88% 0.01 in VWS V15.00 W/m2
19:49 40.3 °F 37.0 °F 29.94 in Calm   6.0 mph 88% 0.01 in VWS V15.00 W/m2
19:53 40.1 °F 36.8 °F 29.94 in Calm   6.0 mph 88% 0.02 in VWS V15.00 W/m2
19:59 40.4 °F 37.7 °F 29.94 in Calm   6.0 mph 90% 0.02 in VWS V15.00 W/m2
20:03 40.5 °F 37.5 °F 29.94 in Calm   1.0 mph 89% 0.01 in VWS V15.00 W/m2
20:09 40.7 °F 38.0 °F 29.94 in Calm   2.0 mph 90% 0.01 in VWS V15.00 W/m2
20:13 40.8 °F 38.1 °F 29.94 in Calm   2.0 mph 90% 0.01 in VWS V15.00 W/m2
20:19 40.4 °F 37.4 °F 29.93 in West 1.0 mph 2.0 mph 89% 0.01 in VWS V15.00 W/m2
20:23 40.4 °F 37.7 °F 29.93 in WNW 2.0 mph 3.0 mph 90% 0.02 in VWS V15.00 W/m2
20:29 40.5 °F 37.8 °F 29.93 in Calm   3.0 mph 90% 0.02 in VWS V15.00 W/m2
20:33 40.3 °F 37.6 °F 29.92 in Calm     90% 0.03 in VWS V15.00 W/m2
20:39 40.1 °F 37.4 °F 29.92 in Calm     90% 0.03 in VWS V15.00 W/m2
20:43 39.9 °F 37.2 °F 29.92 in Calm     90% 0.04 in VWS V15.00 W/m2
20:49 39.7 °F 37.3 °F 29.92 in Calm     91% 0.06 in VWS V15.00 W/m2
20:53 39.4 °F 36.7 °F 29.92 in Calm   1.0 mph 90% 0.07 in VWS V15.00 W/m2
20:59 39.2 °F 37.1 °F 29.91 in Calm   3.0 mph 92% 0.13 in VWS V15.00 W/m2
21:03 39.2 °F 37.1 °F 29.91 in NE 1.0 mph 1.0 mph 92% 0.25 in VWS V15.00 W/m2
21:07 39.2 °F 37.4 °F 29.91 in Calm   1.0 mph 93% 0.30 in VWS V15.00 W/m2
21:13 39.2 °F 37.4 °F 29.91 in Calm   3.0 mph 93% 0.31 in VWS V15.00 W/m2
21:17 39.1 °F 37.2 °F 29.91 in Calm   3.0 mph 93% 0.32 in VWS V15.00 W/m2
21:23 39.5 °F 37.9 °F 29.90 in Calm   3.0 mph 94% 0.32 in VWS V15.00 W/m2
21:27 40.2 °F 38.6 °F 29.90 in Calm   4.0 mph 94% 0.32 in VWS V15.00 W/m2
21:33 40.4 °F 38.8 °F 29.90 in Calm     94% 0.32 in VWS V15.00 W/m2
21:37 40.1 °F 38.2 °F 29.90 in West 2.0 mph 2.0 mph 93% 0.32 in VWS V15.00 W/m2
21:43 40.3 °F 38.7 °F 29.90 in Calm   4.0 mph 94% 0.32 in VWS V15.00 W/m2
21:47 40.1 °F 38.2 °F 29.89 in West 1.0 mph 4.0 mph 93% 0.33 in VWS V15.00 W/m2
21:54 39.7 °F 37.9 °F 29.89 in Calm   4.0 mph 93% 0.33 in VWS V15.00 W/m2
21:58 39.6 °F 37.8 °F 29.89 in West 1.0 mph 4.0 mph 93% 0.33 in VWS V15.00 W/m2
22:04 39.4 °F 37.5 °F 29.89 in Calm   2.0 mph 93% 0.21 in VWS V15.00 W/m2
Liberty Hills, Hanover Township, Pennsylvania, USA
Compliments of Weather Underground - 4.75 mb